sensor_id;sensor_type;location;lat;lon;timestamp;P1;durP1;ratioP1;P2;durP2;ratioP2
55800;SDS011;41730;51.960;20.158;2023-03-24T00:02:08;8.50;;;4.30;;
55800;SDS011;41730;51.960;20.158;2023-03-24T00:04:39;8.00;;;4.00;;
55800;SDS011;41730;51.960;20.158;2023-03-24T00:07:09;9.10;;;4.50;;
55800;SDS011;41730;51.960;20.158;2023-03-24T00:09:40;7.90;;;4.60;;
55800;SDS011;41730;51.960;20.158;2023-03-24T00:12:11;8.60;;;4.60;;
55800;SDS011;41730;51.960;20.158;2023-03-24T00:14:44;7.90;;;3.50;;
55800;SDS011;41730;51.960;20.158;2023-03-24T00:17:13;11.10;;;5.10;;
55800;SDS011;41730;51.960;20.158;2023-03-24T00:19:43;8.80;;;4.60;;
55800;SDS011;41730;51.960;20.158;2023-03-24T00:22:12;7.90;;;4.80;;
55800;SDS011;41730;51.960;20.158;2023-03-24T00:24:41;9.20;;;5.20;;
55800;SDS011;41730;51.960;20.158;2023-03-24T00:27:12;9.00;;;4.90;;
55800;SDS011;41730;51.960;20.158;2023-03-24T00:29:41;9.00;;;4.70;;
55800;SDS011;41730;51.960;20.158;2023-03-24T00:32:10;6.80;;;4.10;;
55800;SDS011;41730;51.960;20.158;2023-03-24T00:34:40;8.00;;;4.00;;
55800;SDS011;41730;51.960;20.158;2023-03-24T00:37:09;10.00;;;5.00;;
55800;SDS011;41730;51.960;20.158;2023-03-24T00:39:38;13.40;;;6.10;;
55800;SDS011;41730;51.960;20.158;2023-03-24T00:42:09;15.90;;;6.30;;
55800;SDS011;41730;51.960;20.158;2023-03-24T00:44:39;12.40;;;5.50;;
55800;SDS011;41730;51.960;20.158;2023-03-24T00:47:10;10.00;;;5.70;;
55800;SDS011;41730;51.960;20.158;2023-03-24T00:49:39;14.30;;;6.50;;
55800;SDS011;41730;51.960;20.158;2023-03-24T00:52:09;12.80;;;6.20;;
55800;SDS011;41730;51.960;20.158;2023-03-24T00:54:39;13.80;;;6.10;;
55800;SDS011;41730;51.960;20.158;2023-03-24T00:57:09;14.60;;;6.50;;
55800;SDS011;41730;51.960;20.158;2023-03-24T00:59:40;10.20;;;5.10;;
55800;SDS011;41730;51.960;20.158;2023-03-24T01:02:14;11.30;;;6.10;;
55800;SDS011;41730;51.960;20.158;2023-03-24T01:04:45;10.10;;;5.60;;
55800;SDS011;41730;51.960;20.158;2023-03-24T01:07:14;8.90;;;5.40;;
55800;SDS011;41730;51.960;20.158;2023-03-24T01:09:44;8.50;;;5.30;;
55800;SDS011;41730;51.960;20.158;2023-03-24T01:12:23;9.70;;;5.50;;
55800;SDS011;41730;51.960;20.158;2023-03-24T01:14:53;9.90;;;5.90;;
55800;SDS011;41730;51.960;20.158;2023-03-24T01:17:24;10.40;;;5.10;;
55800;SDS011;41730;51.960;20.158;2023-03-24T01:19:53;8.80;;;5.30;;
55800;SDS011;41730;51.960;20.158;2023-03-24T01:22:25;10.40;;;5.50;;
55800;SDS011;41730;51.960;20.158;2023-03-24T01:24:56;9.00;;;5.60;;
55800;SDS011;41730;51.960;20.158;2023-03-24T01:27:26;9.70;;;6.00;;
55800;SDS011;41730;51.960;20.158;2023-03-24T01:29:57;11.20;;;5.90;;
55800;SDS011;41730;51.960;20.158;2023-03-24T01:32:27;12.30;;;6.00;;
55800;SDS011;41730;51.960;20.158;2023-03-24T01:34:57;11.80;;;6.50;;
55800;SDS011;41730;51.960;20.158;2023-03-24T01:37:25;12.10;;;6.40;;
55800;SDS011;41730;51.960;20.158;2023-03-24T01:39:54;12.20;;;6.20;;
55800;SDS011;41730;51.960;20.158;2023-03-24T01:42:24;10.60;;;6.40;;
55800;SDS011;41730;51.960;20.158;2023-03-24T01:44:56;9.60;;;5.70;;
55800;SDS011;41730;51.960;20.158;2023-03-24T01:47:27;10.00;;;5.80;;
55800;SDS011;41730;51.960;20.158;2023-03-24T01:49:57;12.40;;;6.50;;
55800;SDS011;41730;51.960;20.158;2023-03-24T01:52:29;10.30;;;5.70;;
55800;SDS011;41730;51.960;20.158;2023-03-24T01:55:02;9.50;;;6.50;;
55800;SDS011;41730;51.960;20.158;2023-03-24T01:57:35;10.90;;;6.40;;
55800;SDS011;41730;51.960;20.158;2023-03-24T02:00:07;11.00;;;6.20;;
55800;SDS011;41730;51.960;20.158;2023-03-24T02:02:40;9.40;;;6.20;;
55800;SDS011;41730;51.960;20.158;2023-03-24T02:05:13;10.20;;;7.20;;
55800;SDS011;41730;51.960;20.158;2023-03-24T02:07:45;9.20;;;6.30;;
55800;SDS011;41730;51.960;20.158;2023-03-24T02:10:18;11.50;;;7.60;;
55800;SDS011;41730;51.960;20.158;2023-03-24T02:12:49;13.40;;;7.70;;
55800;SDS011;41730;51.960;20.158;2023-03-24T02:15:19;11.50;;;7.00;;
55800;SDS011;41730;51.960;20.158;2023-03-24T02:18:00;13.30;;;7.50;;
55800;SDS011;41730;51.960;20.158;2023-03-24T02:20:57;15.50;;;7.80;;
55800;SDS011;41730;51.960;20.158;2023-03-24T02:24:05;12.40;;;7.50;;
55800;SDS011;41730;51.960;20.158;2023-03-24T02:26:55;12.50;;;7.20;;
55800;SDS011;41730;51.960;20.158;2023-03-24T02:35:48;13.60;;;8.40;;
55800;SDS011;41730;51.960;20.158;2023-03-24T02:39:16;13.50;;;8.20;;
55800;SDS011;41730;51.960;20.158;2023-03-24T02:42:05;17.10;;;9.00;;
55800;SDS011;41730;51.960;20.158;2023-03-24T02:44:45;15.20;;;9.30;;
55800;SDS011;41730;51.960;20.158;2023-03-24T02:47:23;15.30;;;8.70;;
55800;SDS011;41730;51.960;20.158;2023-03-24T02:49:59;15.80;;;8.80;;
55800;SDS011;41730;51.960;20.158;2023-03-24T02:52:36;14.80;;;8.80;;
55800;SDS011;41730;51.960;20.158;2023-03-24T02:55:13;17.70;;;9.60;;
55800;SDS011;41730;51.960;20.158;2023-03-24T02:57:47;16.00;;;9.00;;
55800;SDS011;41730;51.960;20.158;2023-03-24T03:00:21;17.40;;;8.90;;
55800;SDS011;41730;51.960;20.158;2023-03-24T03:02:57;15.70;;;9.10;;
55800;SDS011;41730;51.960;20.158;2023-03-24T03:05:30;14.70;;;9.00;;
55800;SDS011;41730;51.960;20.158;2023-03-24T03:08:04;13.90;;;8.80;;
55800;SDS011;41730;51.960;20.158;2023-03-24T03:10:36;15.70;;;8.70;;
55800;SDS011;41730;51.960;20.158;2023-03-24T03:13:08;12.90;;;8.00;;
55800;SDS011;41730;51.960;20.158;2023-03-24T03:15:43;12.90;;;8.30;;
55800;SDS011;41730;51.960;20.158;2023-03-24T03:18:15;12.60;;;8.90;;
55800;SDS011;41730;51.960;20.158;2023-03-24T03:20:49;13.20;;;7.90;;
55800;SDS011;41730;51.960;20.158;2023-03-24T03:23:24;13.00;;;8.30;;
55800;SDS011;41730;51.960;20.158;2023-03-24T03:25:58;15.90;;;9.30;;
55800;SDS011;41730;51.960;20.158;2023-03-24T03:28:30;15.00;;;9.40;;
55800;SDS011;41730;51.960;20.158;2023-03-24T03:31:03;13.70;;;8.50;;
55800;SDS011;41730;51.960;20.158;2023-03-24T03:36:07;18.20;;;9.00;;
55800;SDS011;41730;51.960;20.158;2023-03-24T03:41:12;13.10;;;7.80;;
55800;SDS011;41730;51.960;20.158;2023-03-24T03:43:44;13.90;;;9.00;;
55800;SDS011;41730;51.960;20.158;2023-03-24T03:46:14;15.90;;;10.00;;
55800;SDS011;41730;51.960;20.158;2023-03-24T03:48:44;14.80;;;9.70;;
55800;SDS011;41730;51.960;20.158;2023-03-24T03:51:13;17.60;;;10.30;;
55800;SDS011;41730;51.960;20.158;2023-03-24T03:53:45;15.50;;;9.40;;
55800;SDS011;41730;51.960;20.158;2023-03-24T03:56:18;14.00;;;9.10;;
55800;SDS011;41730;51.960;20.158;2023-03-24T03:58:49;17.70;;;9.80;;
55800;SDS011;41730;51.960;20.158;2023-03-24T04:01:20;14.70;;;9.40;;
55800;SDS011;41730;51.960;20.158;2023-03-24T04:04:03;16.40;;;9.80;;
55800;SDS011;41730;51.960;20.158;2023-03-24T04:06:47;14.70;;;9.30;;
55800;SDS011;41730;51.960;20.158;2023-03-24T04:09:29;14.60;;;9.80;;
55800;SDS011;41730;51.960;20.158;2023-03-24T04:15:23;17.00;;;9.90;;
55800;SDS011;41730;51.960;20.158;2023-03-24T04:18:15;18.40;;;10.70;;
55800;SDS011;41730;51.960;20.158;2023-03-24T04:21:11;17.80;;;10.90;;
55800;SDS011;41730;51.960;20.158;2023-03-24T04:24:02;16.40;;;10.60;;
55800;SDS011;41730;51.960;20.158;2023-03-24T04:26:45;21.00;;;11.20;;
55800;SDS011;41730;51.960;20.158;2023-03-24T04:29:25;15.80;;;10.50;;
55800;SDS011;41730;51.960;20.158;2023-03-24T04:32:07;17.70;;;10.10;;
55800;SDS011;41730;51.960;20.158;2023-03-24T04:34:52;15.80;;;10.20;;
55800;SDS011;41730;51.960;20.158;2023-03-24T04:37:30;18.10;;;10.60;;
55800;SDS011;41730;51.960;20.158;2023-03-24T04:40:05;18.60;;;11.00;;
55800;SDS011;41730;51.960;20.158;2023-03-24T04:42:40;16.20;;;10.30;;
55800;SDS011;41730;51.960;20.158;2023-03-24T04:45:12;20.90;;;11.00;;
55800;SDS011;41730;51.960;20.158;2023-03-24T04:47:44;15.50;;;10.30;;
55800;SDS011;41730;51.960;20.158;2023-03-24T04:50:15;15.70;;;10.00;;
55800;SDS011;41730;51.960;20.158;2023-03-24T04:52:56;18.50;;;10.50;;
55800;SDS011;41730;51.960;20.158;2023-03-24T04:55:31;17.50;;;10.00;;
55800;SDS011;41730;51.960;20.158;2023-03-24T04:58:17;17.60;;;10.30;;
55800;SDS011;41730;51.960;20.158;2023-03-24T05:00:48;17.60;;;10.00;;
55800;SDS011;41730;51.960;20.158;2023-03-24T05:03:17;16.70;;;9.60;;
55800;SDS011;41730;51.960;20.158;2023-03-24T05:05:47;16.10;;;9.10;;
55800;SDS011;41730;51.960;20.158;2023-03-24T05:08:17;18.70;;;10.00;;
55800;SDS011;41730;51.960;20.158;2023-03-24T05:10:47;15.40;;;9.50;;
55800;SDS011;41730;51.960;20.158;2023-03-24T05:13:16;13.40;;;9.10;;
55800;SDS011;41730;51.960;20.158;2023-03-24T05:15:44;15.80;;;8.90;;
55800;SDS011;41730;51.960;20.158;2023-03-24T05:18:13;18.70;;;10.20;;
55800;SDS011;41730;51.960;20.158;2023-03-24T05:20:42;20.50;;;11.80;;
55800;SDS011;41730;51.960;20.158;2023-03-24T05:23:11;22.90;;;13.30;;
55800;SDS011;41730;51.960;20.158;2023-03-24T05:25:40;30.00;;;17.40;;
55800;SDS011;41730;51.960;20.158;2023-03-24T05:28:09;33.10;;;19.50;;
55800;SDS011;41730;51.960;20.158;2023-03-24T05:30:38;27.00;;;15.70;;
55800;SDS011;41730;51.960;20.158;2023-03-24T05:33:07;25.80;;;14.10;;
55800;SDS011;41730;51.960;20.158;2023-03-24T05:35:36;18.00;;;11.40;;
55800;SDS011;41730;51.960;20.158;2023-03-24T05:38:06;19.00;;;11.10;;
55800;SDS011;41730;51.960;20.158;2023-03-24T05:40:36;18.10;;;11.60;;
55800;SDS011;41730;51.960;20.158;2023-03-24T05:43:05;19.50;;;10.90;;
55800;SDS011;41730;51.960;20.158;2023-03-24T05:45:34;19.10;;;10.90;;
55800;SDS011;41730;51.960;20.158;2023-03-24T05:48:03;19.70;;;11.50;;
55800;SDS011;41730;51.960;20.158;2023-03-24T05:50:33;18.60;;;10.30;;
55800;SDS011;41730;51.960;20.158;2023-03-24T05:53:02;16.40;;;9.40;;
55800;SDS011;41730;51.960;20.158;2023-03-24T05:55:31;14.20;;;9.60;;
55800;SDS011;41730;51.960;20.158;2023-03-24T05:58:00;17.20;;;10.30;;
55800;SDS011;41730;51.960;20.158;2023-03-24T06:00:30;17.90;;;11.20;;
55800;SDS011;41730;51.960;20.158;2023-03-24T06:02:59;16.60;;;9.10;;
55800;SDS011;41730;51.960;20.158;2023-03-24T06:05:32;12.70;;;8.50;;
55800;SDS011;41730;51.960;20.158;2023-03-24T06:08:01;13.70;;;8.60;;
55800;SDS011;41730;51.960;20.158;2023-03-24T06:10:31;12.90;;;8.10;;
55800;SDS011;41730;51.960;20.158;2023-03-24T06:13:02;13.70;;;8.70;;
55800;SDS011;41730;51.960;20.158;2023-03-24T06:15:34;16.00;;;7.90;;
55800;SDS011;41730;51.960;20.158;2023-03-24T06:18:05;14.30;;;7.90;;
55800;SDS011;41730;51.960;20.158;2023-03-24T06:20:34;14.50;;;8.40;;
55800;SDS011;41730;51.960;20.158;2023-03-24T06:23:03;13.60;;;8.70;;
55800;SDS011;41730;51.960;20.158;2023-03-24T06:25:34;14.60;;;8.80;;
55800;SDS011;41730;51.960;20.158;2023-03-24T06:28:03;14.10;;;8.30;;
55800;SDS011;41730;51.960;20.158;2023-03-24T06:30:36;13.90;;;9.10;;
55800;SDS011;41730;51.960;20.158;2023-03-24T06:33:06;13.50;;;9.20;;
55800;SDS011;41730;51.960;20.158;2023-03-24T06:35:35;14.10;;;8.40;;
55800;SDS011;41730;51.960;20.158;2023-03-24T06:38:04;14.70;;;8.70;;
55800;SDS011;41730;51.960;20.158;2023-03-24T06:40:33;12.50;;;8.40;;
55800;SDS011;41730;51.960;20.158;2023-03-24T06:43:02;15.70;;;9.00;;
55800;SDS011;41730;51.960;20.158;2023-03-24T06:45:31;12.40;;;8.10;;
55800;SDS011;41730;51.960;20.158;2023-03-24T06:48:00;14.90;;;8.80;;
55800;SDS011;41730;51.960;20.158;2023-03-24T06:50:29;14.30;;;8.60;;
55800;SDS011;41730;51.960;20.158;2023-03-24T06:53:01;15.50;;;9.40;;
55800;SDS011;41730;51.960;20.158;2023-03-24T06:55:30;13.70;;;8.50;;
55800;SDS011;41730;51.960;20.158;2023-03-24T06:57:59;15.50;;;9.40;;
55800;SDS011;41730;51.960;20.158;2023-03-24T07:00:28;14.10;;;9.10;;
55800;SDS011;41730;51.960;20.158;2023-03-24T07:02:57;16.30;;;9.00;;
55800;SDS011;41730;51.960;20.158;2023-03-24T07:05:28;14.00;;;8.30;;
55800;SDS011;41730;51.960;20.158;2023-03-24T07:07:58;14.20;;;8.50;;
55800;SDS011;41730;51.960;20.158;2023-03-24T07:10:30;12.20;;;8.80;;
55800;SDS011;41730;51.960;20.158;2023-03-24T07:12:59;17.30;;;9.20;;
55800;SDS011;41730;51.960;20.158;2023-03-24T07:15:29;13.30;;;8.90;;
55800;SDS011;41730;51.960;20.158;2023-03-24T07:17:58;12.50;;;8.70;;
55800;SDS011;41730;51.960;20.158;2023-03-24T07:20:27;15.00;;;9.40;;
55800;SDS011;41730;51.960;20.158;2023-03-24T07:22:56;13.30;;;9.10;;
55800;SDS011;41730;51.960;20.158;2023-03-24T07:25:25;17.30;;;9.80;;
55800;SDS011;41730;51.960;20.158;2023-03-24T07:27:55;16.80;;;9.50;;
55800;SDS011;41730;51.960;20.158;2023-03-24T07:30:24;14.20;;;9.20;;
55800;SDS011;41730;51.960;20.158;2023-03-24T07:33:05;15.30;;;9.00;;
55800;SDS011;41730;51.960;20.158;2023-03-24T07:35:36;13.90;;;9.40;;
55800;SDS011;41730;51.960;20.158;2023-03-24T07:38:05;13.50;;;8.20;;
55800;SDS011;41730;51.960;20.158;2023-03-24T07:40:34;12.30;;;8.90;;
55800;SDS011;41730;51.960;20.158;2023-03-24T07:43:03;11.70;;;8.60;;
55800;SDS011;41730;51.960;20.158;2023-03-24T07:45:33;13.80;;;8.40;;
55800;SDS011;41730;51.960;20.158;2023-03-24T07:48:02;13.50;;;9.10;;
55800;SDS011;41730;51.960;20.158;2023-03-24T07:50:31;16.80;;;10.30;;
55800;SDS011;41730;51.960;20.158;2023-03-24T07:53:00;15.50;;;9.00;;
55800;SDS011;41730;51.960;20.158;2023-03-24T07:55:30;14.80;;;8.60;;
55800;SDS011;41730;51.960;20.158;2023-03-24T07:57:58;11.20;;;7.80;;
55800;SDS011;41730;51.960;20.158;2023-03-24T08:00:27;14.10;;;8.10;;
55800;SDS011;41730;51.960;20.158;2023-03-24T08:02:58;12.40;;;7.90;;
55800;SDS011;41730;51.960;20.158;2023-03-24T08:05:28;13.80;;;8.20;;
55800;SDS011;41730;51.960;20.158;2023-03-24T08:07:57;11.60;;;7.40;;
55800;SDS011;41730;51.960;20.158;2023-03-24T08:10:27;10.00;;;7.00;;
55800;SDS011;41730;51.960;20.158;2023-03-24T08:12:57;13.00;;;7.90;;
55800;SDS011;41730;51.960;20.158;2023-03-24T08:15:26;11.00;;;7.80;;
55800;SDS011;41730;51.960;20.158;2023-03-24T08:17:56;14.40;;;8.10;;
55800;SDS011;41730;51.960;20.158;2023-03-24T08:20:26;11.50;;;7.50;;
55800;SDS011;41730;51.960;20.158;2023-03-24T08:22:55;13.80;;;7.80;;
55800;SDS011;41730;51.960;20.158;2023-03-24T08:25:27;10.80;;;7.10;;
55800;SDS011;41730;51.960;20.158;2023-03-24T08:27:57;10.70;;;7.20;;
55800;SDS011;41730;51.960;20.158;2023-03-24T08:30:27;10.80;;;6.90;;
55800;SDS011;41730;51.960;20.158;2023-03-24T08:32:56;12.60;;;7.40;;
55800;SDS011;41730;51.960;20.158;2023-03-24T08:35:28;10.10;;;6.50;;
55800;SDS011;41730;51.960;20.158;2023-03-24T08:37:59;7.80;;;5.70;;
55800;SDS011;41730;51.960;20.158;2023-03-24T08:40:34;9.60;;;5.60;;
55800;SDS011;41730;51.960;20.158;2023-03-24T08:43:05;9.00;;;5.60;;
55800;SDS011;41730;51.960;20.158;2023-03-24T08:45:35;10.70;;;6.00;;
55800;SDS011;41730;51.960;20.158;2023-03-24T08:48:06;9.90;;;5.80;;
55800;SDS011;41730;51.960;20.158;2023-03-24T08:50:36;10.20;;;5.60;;
55800;SDS011;41730;51.960;20.158;2023-03-24T08:53:07;10.30;;;5.40;;
55800;SDS011;41730;51.960;20.158;2023-03-24T08:55:37;10.70;;;5.60;;
55800;SDS011;41730;51.960;20.158;2023-03-24T08:58:09;9.80;;;5.80;;
55800;SDS011;41730;51.960;20.158;2023-03-24T09:00:42;9.20;;;5.50;;
55800;SDS011;41730;51.960;20.158;2023-03-24T09:03:13;9.30;;;5.80;;
55800;SDS011;41730;51.960;20.158;2023-03-24T09:05:44;8.30;;;5.00;;
55800;SDS011;41730;51.960;20.158;2023-03-24T09:08:14;9.70;;;5.20;;
55800;SDS011;41730;51.960;20.158;2023-03-24T09:10:45;8.90;;;5.40;;
55800;SDS011;41730;51.960;20.158;2023-03-24T09:13:14;9.20;;;5.80;;
55800;SDS011;41730;51.960;20.158;2023-03-24T09:15:47;11.00;;;5.50;;
55800;SDS011;41730;51.960;20.158;2023-03-24T09:18:19;12.00;;;5.70;;
55800;SDS011;41730;51.960;20.158;2023-03-24T09:20:48;10.10;;;6.20;;
55800;SDS011;41730;51.960;20.158;2023-03-24T09:23:18;8.80;;;5.90;;
55800;SDS011;41730;51.960;20.158;2023-03-24T09:25:48;9.90;;;6.50;;
55800;SDS011;41730;51.960;20.158;2023-03-24T09:28:18;9.20;;;5.90;;
55800;SDS011;41730;51.960;20.158;2023-03-24T09:30:47;8.60;;;5.60;;
55800;SDS011;41730;51.960;20.158;2023-03-24T09:33:17;9.40;;;6.00;;
55800;SDS011;41730;51.960;20.158;2023-03-24T09:35:48;11.10;;;6.10;;
55800;SDS011;41730;51.960;20.158;2023-03-24T09:38:26;9.20;;;5.90;;
55800;SDS011;41730;51.960;20.158;2023-03-24T09:40:57;10.50;;;6.70;;
55800;SDS011;41730;51.960;20.158;2023-03-24T09:43:30;9.20;;;7.00;;
55800;SDS011;41730;51.960;20.158;2023-03-24T09:46:05;12.60;;;7.90;;
55800;SDS011;41730;51.960;20.158;2023-03-24T09:48:42;11.90;;;7.80;;
55800;SDS011;41730;51.960;20.158;2023-03-24T09:51:18;12.20;;;7.20;;
55800;SDS011;41730;51.960;20.158;2023-03-24T09:53:50;10.90;;;7.20;;
55800;SDS011;41730;51.960;20.158;2023-03-24T09:56:25;10.60;;;6.70;;
55800;SDS011;41730;51.960;20.158;2023-03-24T09:59:04;9.60;;;6.30;;
55800;SDS011;41730;51.960;20.158;2023-03-24T10:01:39;8.30;;;5.40;;
55800;SDS011;41730;51.960;20.158;2023-03-24T10:04:11;12.60;;;6.10;;
55800;SDS011;41730;51.960;20.158;2023-03-24T10:06:42;10.60;;;6.00;;
55800;SDS011;41730;51.960;20.158;2023-03-24T10:09:16;9.80;;;6.20;;
55800;SDS011;41730;51.960;20.158;2023-03-24T10:11:54;9.30;;;5.70;;
55800;SDS011;41730;51.960;20.158;2023-03-24T10:14:37;11.40;;;6.60;;
55800;SDS011;41730;51.960;20.158;2023-03-24T10:17:15;8.90;;;6.10;;
55800;SDS011;41730;51.960;20.158;2023-03-24T10:19:53;10.60;;;5.90;;
55800;SDS011;41730;51.960;20.158;2023-03-24T10:22:28;10.60;;;6.40;;
55800;SDS011;41730;51.960;20.158;2023-03-24T10:25:05;11.60;;;6.90;;
55800;SDS011;41730;51.960;20.158;2023-03-24T10:27:42;8.80;;;6.20;;
55800;SDS011;41730;51.960;20.158;2023-03-24T10:30:18;8.90;;;6.40;;
55800;SDS011;41730;51.960;20.158;2023-03-24T10:32:49;9.20;;;6.00;;
55800;SDS011;41730;51.960;20.158;2023-03-24T10:35:21;10.50;;;5.60;;
55800;SDS011;41730;51.960;20.158;2023-03-24T10:37:54;9.90;;;6.50;;
55800;SDS011;41730;51.960;20.158;2023-03-24T10:40:26;11.10;;;5.90;;
55800;SDS011;41730;51.960;20.158;2023-03-24T10:43:00;8.90;;;5.60;;
55800;SDS011;41730;51.960;20.158;2023-03-24T10:45:36;8.30;;;5.50;;
55800;SDS011;41730;51.960;20.158;2023-03-24T10:48:09;9.90;;;5.70;;
55800;SDS011;41730;51.960;20.158;2023-03-24T10:50:41;8.50;;;5.00;;
55800;SDS011;41730;51.960;20.158;2023-03-24T10:53:16;6.60;;;4.90;;
55800;SDS011;41730;51.960;20.158;2023-03-24T10:55:46;7.60;;;5.10;;
55800;SDS011;41730;51.960;20.158;2023-03-24T10:58:19;8.60;;;5.10;;
55800;SDS011;41730;51.960;20.158;2023-03-24T11:00:53;9.00;;;5.40;;
55800;SDS011;41730;51.960;20.158;2023-03-24T11:03:25;7.90;;;4.90;;
55800;SDS011;41730;51.960;20.158;2023-03-24T11:05:58;7.80;;;5.10;;
55800;SDS011;41730;51.960;20.158;2023-03-24T11:08:32;8.50;;;4.20;;
55800;SDS011;41730;51.960;20.158;2023-03-24T11:11:12;6.20;;;4.20;;
55800;SDS011;41730;51.960;20.158;2023-03-24T11:13:54;7.60;;;3.90;;
55800;SDS011;41730;51.960;20.158;2023-03-24T11:16:28;9.70;;;4.00;;
55800;SDS011;41730;51.960;20.158;2023-03-24T11:18:59;7.60;;;3.80;;
55800;SDS011;41730;51.960;20.158;2023-03-24T11:21:31;8.50;;;3.70;;
55800;SDS011;41730;51.960;20.158;2023-03-24T11:24:07;8.20;;;3.70;;
55800;SDS011;41730;51.960;20.158;2023-03-24T11:26:39;7.70;;;4.20;;
55800;SDS011;41730;51.960;20.158;2023-03-24T11:29:12;6.40;;;4.60;;
55800;SDS011;41730;51.960;20.158;2023-03-24T11:31:50;5.80;;;4.20;;
55800;SDS011;41730;51.960;20.158;2023-03-24T11:34:21;6.90;;;4.00;;
55800;SDS011;41730;51.960;20.158;2023-03-24T11:37:02;8.00;;;4.40;;
55800;SDS011;41730;51.960;20.158;2023-03-24T11:39:34;6.90;;;4.50;;
55800;SDS011;41730;51.960;20.158;2023-03-24T11:42:10;7.80;;;4.40;;
55800;SDS011;41730;51.960;20.158;2023-03-24T11:44:45;7.30;;;4.30;;
55800;SDS011;41730;51.960;20.158;2023-03-24T11:47:21;6.80;;;4.80;;
55800;SDS011;41730;51.960;20.158;2023-03-24T11:49:59;9.00;;;4.80;;
55800;SDS011;41730;51.960;20.158;2023-03-24T11:52:43;9.10;;;5.10;;
55800;SDS011;41730;51.960;20.158;2023-03-24T11:55:18;10.80;;;4.80;;
55800;SDS011;41730;51.960;20.158;2023-03-24T11:57:56;6.70;;;4.60;;
55800;SDS011;41730;51.960;20.158;2023-03-24T12:00:29;9.30;;;4.90;;
55800;SDS011;41730;51.960;20.158;2023-03-24T12:03:08;15.30;;;7.00;;
55800;SDS011;41730;51.960;20.158;2023-03-24T12:05:54;18.50;;;10.70;;
55800;SDS011;41730;51.960;20.158;2023-03-24T12:08:30;9.10;;;5.30;;
55800;SDS011;41730;51.960;20.158;2023-03-24T12:11:12;6.90;;;4.50;;
55800;SDS011;41730;51.960;20.158;2023-03-24T12:13:47;7.50;;;4.10;;
55800;SDS011;41730;51.960;20.158;2023-03-24T12:19:20;7.80;;;4.30;;
55800;SDS011;41730;51.960;20.158;2023-03-24T12:22:10;7.10;;;4.30;;
55800;SDS011;41730;51.960;20.158;2023-03-24T12:24:54;6.00;;;3.80;;
55800;SDS011;41730;51.960;20.158;2023-03-24T12:27:47;5.70;;;4.10;;
55800;SDS011;41730;51.960;20.158;2023-03-24T12:30:30;5.60;;;3.60;;
55800;SDS011;41730;51.960;20.158;2023-03-24T12:33:09;6.40;;;3.90;;
55800;SDS011;41730;51.960;20.158;2023-03-24T12:36:07;5.90;;;3.80;;
55800;SDS011;41730;51.960;20.158;2023-03-24T12:38:50;6.60;;;3.60;;
55800;SDS011;41730;51.960;20.158;2023-03-24T12:44:32;6.90;;;3.50;;
55800;SDS011;41730;51.960;20.158;2023-03-24T12:47:18;6.50;;;3.60;;
55800;SDS011;41730;51.960;20.158;2023-03-24T12:50:10;6.40;;;3.40;;
55800;SDS011;41730;51.960;20.158;2023-03-24T12:52:59;5.30;;;3.40;;
55800;SDS011;41730;51.960;20.158;2023-03-24T12:55:49;7.00;;;3.20;;
55800;SDS011;41730;51.960;20.158;2023-03-24T12:58:22;6.60;;;3.00;;
55800;SDS011;41730;51.960;20.158;2023-03-24T13:01:06;5.40;;;2.90;;
55800;SDS011;41730;51.960;20.158;2023-03-24T13:03:43;10.70;;;3.10;;
55800;SDS011;41730;51.960;20.158;2023-03-24T13:06:18;6.00;;;3.00;;
55800;SDS011;41730;51.960;20.158;2023-03-24T13:09:00;6.30;;;2.80;;
55800;SDS011;41730;51.960;20.158;2023-03-24T13:11:35;5.00;;;2.30;;
55800;SDS011;41730;51.960;20.158;2023-03-24T13:14:15;7.60;;;2.60;;
55800;SDS011;41730;51.960;20.158;2023-03-24T13:16:49;4.20;;;2.50;;
55800;SDS011;41730;51.960;20.158;2023-03-24T13:19:22;5.60;;;2.30;;
55800;SDS011;41730;51.960;20.158;2023-03-24T13:21:53;5.20;;;2.80;;
55800;SDS011;41730;51.960;20.158;2023-03-24T13:24:24;10.70;;;4.70;;
55800;SDS011;41730;51.960;20.158;2023-03-24T13:26:56;6.20;;;3.50;;
55800;SDS011;41730;51.960;20.158;2023-03-24T13:32:31;3.70;;;2.30;;
55800;SDS011;41730;51.960;20.158;2023-03-24T13:35:09;5.00;;;2.00;;
55800;SDS011;41730;51.960;20.158;2023-03-24T13:37:46;3.10;;;2.10;;
55800;SDS011;41730;51.960;20.158;2023-03-24T13:40:20;5.40;;;2.70;;
55800;SDS011;41730;51.960;20.158;2023-03-24T13:42:53;10.70;;;2.50;;
55800;SDS011;41730;51.960;20.158;2023-03-24T13:45:32;6.00;;;2.30;;
55800;SDS011;41730;51.960;20.158;2023-03-24T13:48:16;4.40;;;2.30;;
55800;SDS011;41730;51.960;20.158;2023-03-24T13:50:56;4.60;;;2.00;;
55800;SDS011;41730;51.960;20.158;2023-03-24T13:53:30;5.50;;;2.30;;
55800;SDS011;41730;51.960;20.158;2023-03-24T13:56:04;8.30;;;3.70;;
55800;SDS011;41730;51.960;20.158;2023-03-24T13:58:49;3.40;;;2.20;;
55800;SDS011;41730;51.960;20.158;2023-03-24T14:01:38;8.60;;;2.50;;
55800;SDS011;41730;51.960;20.158;2023-03-24T14:04:26;5.30;;;2.70;;
55800;SDS011;41730;51.960;20.158;2023-03-24T14:07:24;5.60;;;3.60;;
55800;SDS011;41730;51.960;20.158;2023-03-24T14:10:00;6.40;;;3.70;;
55800;SDS011;41730;51.960;20.158;2023-03-24T14:12:50;7.30;;;3.80;;
55800;SDS011;41730;51.960;20.158;2023-03-24T14:15:21;8.40;;;3.60;;
55800;SDS011;41730;51.960;20.158;2023-03-24T14:17:55;8.80;;;4.20;;
55800;SDS011;41730;51.960;20.158;2023-03-24T14:20:41;7.00;;;3.70;;
55800;SDS011;41730;51.960;20.158;2023-03-24T14:23:29;4.60;;;3.30;;
55800;SDS011;41730;51.960;20.158;2023-03-24T14:26:02;5.70;;;2.80;;
55800;SDS011;41730;51.960;20.158;2023-03-24T14:28:36;5.50;;;2.80;;
55800;SDS011;41730;51.960;20.158;2023-03-24T14:31:15;7.20;;;2.80;;
55800;SDS011;41730;51.960;20.158;2023-03-24T14:34:00;5.00;;;2.50;;
55800;SDS011;41730;51.960;20.158;2023-03-24T14:36:37;8.70;;;3.10;;
55800;SDS011;41730;51.960;20.158;2023-03-24T14:39:23;7.40;;;2.90;;
55800;SDS011;41730;51.960;20.158;2023-03-24T14:41:58;3.80;;;2.80;;
55800;SDS011;41730;51.960;20.158;2023-03-24T14:47:22;6.20;;;3.20;;
55800;SDS011;41730;51.960;20.158;2023-03-24T14:49:56;5.70;;;3.30;;
55800;SDS011;41730;51.960;20.158;2023-03-24T14:52:31;5.30;;;3.40;;
55800;SDS011;41730;51.960;20.158;2023-03-24T14:55:08;5.00;;;3.00;;
55800;SDS011;41730;51.960;20.158;2023-03-24T14:57:43;6.60;;;3.70;;
55800;SDS011;41730;51.960;20.158;2023-03-24T15:00:16;8.20;;;3.90;;
55800;SDS011;41730;51.960;20.158;2023-03-24T15:02:48;6.50;;;3.40;;
55800;SDS011;41730;51.960;20.158;2023-03-24T15:05:20;7.60;;;3.80;;
55800;SDS011;41730;51.960;20.158;2023-03-24T15:07:58;7.00;;;3.90;;
55800;SDS011;41730;51.960;20.158;2023-03-24T15:10:40;7.30;;;4.10;;
55800;SDS011;41730;51.960;20.158;2023-03-24T15:13:28;10.10;;;5.60;;
55800;SDS011;41730;51.960;20.158;2023-03-24T15:16:04;15.40;;;6.30;;
55800;SDS011;41730;51.960;20.158;2023-03-24T15:18:44;9.60;;;5.30;;
55800;SDS011;41730;51.960;20.158;2023-03-24T15:21:28;9.70;;;5.40;;
55800;SDS011;41730;51.960;20.158;2023-03-24T15:23:59;12.80;;;6.40;;
55800;SDS011;41730;51.960;20.158;2023-03-24T15:26:30;13.20;;;6.80;;
55800;SDS011;41730;51.960;20.158;2023-03-24T15:29:00;14.20;;;7.00;;
55800;SDS011;41730;51.960;20.158;2023-03-24T15:31:32;13.90;;;7.80;;
55800;SDS011;41730;51.960;20.158;2023-03-24T15:34:06;18.70;;;8.70;;